Aérodrome :
LOGIN :

S'inscrire | Disclaimer

   EN    FR    IT 

 










Légende :    VFR   VFR Marginal   IFR   IFR Intensif   IFR Très Intensif
Visi : 
Plafond : 
>= 8 km
>= 3000ft
5 à 8 km
1000 à 3000 ft
1500m à 5 km
500 à 1000 ft
800 à 1500m
200 à 500 ft
< 800m
< 200 ft
Symboles :   Orages  Brouillard  Fortes neiges  Fortes précipitations  Vent > 20 kt
SIGMETs :   Divers  Orages  Givrage  Turbulence  Onde Orograph.  Cendres Volcan.






- Altitude de l'aérodrome : 776 ft
- Code IATA : RMS


ETAR - Ramstein Air Base

DERNIER METAR :
  • 300356Z AUTO 03014KT 9999 OVC038 00/M07 A3034 RMK AO2 SLP288 T10051071 FZRANO $

METARs EXPIRÉS :
  • 300256Z AUTO 02012KT 9999 OVC037 00/M07 A3034 RMK AO2 SLP288 T00031066 57004 FZRANO $

TAF TAF ETAR
Valide du 30 à 02h jusqu'au 31 à 08h UTC


300200Z 3002/3108 04012G20KT 9999 SCT040 510004 QNH3034INS
BECMG 3003/3004 04012G20KT 9999 SKC 510004 QNH3030INS
BECMG 3011/3012 04010KT 9999 SKC QNH3026INS
BECMG 3019/3020 01006KT 9999 SCT040 QNH3028INS
BECMG 3100/3101 03006KT 9999 BKN020 620203 QNH3028INS TX06/3015Z TNM03/3006Z



MET'MAP, la Météo Aéronautique d'un coup d'oeil ! - Copyright ORBIFLY Décembre 2007 - Disclaimer

ORBIFLY MET'MAP TEAM :

Programmation & Développement : Alexandra Zaïnal
Sur une idée originale de : Baudouin d'Aumeries
Assistance à la programmation : Marc-Olivier Méhu
Soutien technique & logistique : Manuel Goepfert

Contact : metmap@orbifly.com




SOURCES & CREDITS :

   NOAA